createdAt,value
2018-11-01T00:01:28.362Z,101178.62
2018-11-01T00:03:56.772Z,101180.23
2018-11-01T00:06:25.183Z,101183.80
2018-11-01T00:08:53.535Z,101180.87
2018-11-01T00:11:21.865Z,101180.55
2018-11-01T00:13:50.330Z,101178.95
2018-11-01T00:16:18.876Z,101171.77
2018-11-01T00:18:47.196Z,101162.90
2018-11-01T00:21:15.615Z,101162.91
2018-11-01T00:23:43.913Z,101162.89
2018-11-01T00:26:12.369Z,101162.91
2018-11-01T00:28:40.640Z,101167.53
2018-11-01T00:31:08.969Z,101172.37
2018-11-01T00:33:37.461Z,101177.39
2018-11-01T00:36:05.766Z,101175.61
2018-11-01T00:38:34.266Z,101171.13
2018-11-01T00:41:02.622Z,101169.35
2018-11-01T00:43:30.937Z,101163.72
2018-11-01T00:45:59.469Z,101155.88
2018-11-01T00:48:27.845Z,101147.66
2018-11-01T00:50:56.217Z,101146.10
2018-11-01T00:53:24.706Z,101142.31
2018-11-01T00:55:53.086Z,101143.52
2018-11-01T00:58:21.568Z,101136.69
2018-11-01T01:00:50.041Z,101137.55
2018-11-01T01:03:18.381Z,101130.84
2018-11-01T01:05:46.809Z,101129.03
2018-11-01T01:08:15.090Z,101134.11
2018-11-01T01:10:43.541Z,101136.73
2018-11-01T01:13:11.956Z,101139.63
2018-11-01T01:15:40.370Z,101135.85
2018-11-01T01:18:08.877Z,101134.06
2018-11-01T01:20:37.173Z,101145.45
2018-11-01T01:23:05.979Z,101144.54
2018-11-01T01:25:34.395Z,101141.16
2018-11-01T01:28:02.699Z,101126.30
2018-11-01T01:30:31.007Z,101127.17
2018-11-01T01:32:59.474Z,101112.02
2018-11-01T01:35:27.893Z,101114.84
2018-11-01T01:37:56.229Z,101111.54
2018-11-01T01:40:24.785Z,101111.54
2018-11-01T01:42:54.679Z,101101.42
2018-11-01T01:45:23.860Z,101092.98
2018-11-01T01:47:52.543Z,101096.42
2018-11-01T01:50:21.269Z,101094.05
2018-11-01T01:52:49.839Z,101090.64
2018-11-01T01:55:18.298Z,101082.86
2018-11-01T01:57:46.637Z,101084.25
2018-11-01T02:00:16.414Z,101088.58
2018-11-01T02:02:47.978Z,101077.11
2018-11-01T02:05:16.287Z,101065.64
2018-11-01T02:07:44.720Z,101067.27
2018-11-01T02:10:14.382Z,101068.73
2018-11-01T02:12:42.717Z,101051.86
2018-11-01T02:15:16.559Z,101042.60
2018-11-01T02:17:45.148Z,101049.31
2018-11-01T02:20:15.271Z,101050.37
2018-11-01T02:22:44.343Z,101054.67
2018-11-01T02:25:12.746Z,101043.92
2018-11-01T02:27:46.753Z,101036.30
2018-11-01T02:30:16.112Z,101035.40
2018-11-01T02:32:44.972Z,101036.94
2018-11-01T02:35:15.547Z,101030.24
2018-11-01T02:37:45.006Z,101026.83
2018-11-01T02:40:14.307Z,101019.81
2018-11-01T02:42:43.256Z,101012.67
2018-11-01T02:45:12.833Z,100995.16
2018-11-01T02:47:41.691Z,100997.97
2018-11-01T02:50:12.002Z,101005.30
2018-11-01T02:52:41.596Z,101012.61
2018-11-01T02:55:10.664Z,101012.02
2018-11-01T02:57:39.541Z,101020.98
2018-11-01T03:00:10.818Z,101039.22
2018-11-01T03:02:39.760Z,101027.13
2018-11-01T03:05:09.330Z,101024.83
2018-11-01T03:07:38.461Z,101008.98
2018-11-01T03:10:10.002Z,101008.67
2018-11-01T03:12:39.036Z,101009.83
2018-11-01T03:15:09.978Z,101016.98
2018-11-01T03:17:38.384Z,101015.34
2018-11-01T03:20:07.897Z,101010.93
2018-11-01T03:22:36.561Z,101014.41
2018-11-01T03:25:05.547Z,101010.95
2018-11-01T03:27:33.977Z,101007.50
2018-11-01T03:30:06.280Z,101006.27
2018-11-01T03:32:36.139Z,101007.20
2018-11-01T03:35:05.014Z,101010.30
2018-11-01T03:37:33.585Z,101012.63
2018-11-01T03:40:02.077Z,101012.47
2018-11-01T03:42:30.446Z,101004.41
2018-11-01T03:44:58.816Z,100996.50
2018-11-01T03:47:27.324Z,101006.09
2018-11-01T03:49:55.675Z,101010.84
2018-11-01T03:52:23.974Z,101011.02
2018-11-01T03:54:52.502Z,101012.97
2018-11-01T03:57:21.174Z,101014.03
2018-11-01T03:59:49.694Z,101010.01
2018-11-01T04:02:17.988Z,101001.62
2018-11-01T04:04:46.458Z,100998.52
2018-11-01T04:07:14.909Z,100996.37
2018-11-01T04:09:43.263Z,101001.12
2018-11-01T04:12:11.703Z,101008.71
2018-11-01T04:14:40.044Z,100997.39
2018-11-01T04:17:08.555Z,100994.45
2018-11-01T04:19:37.221Z,100986.29
2018-11-01T04:22:06.374Z,100991.00
2018-11-01T04:24:36.003Z,100993.08
2018-11-01T04:27:04.825Z,100984.91
2018-11-01T04:29:34.384Z,100982.34
2018-11-01T04:32:02.986Z,100985.17
2018-11-01T04:34:31.402Z,100983.79
2018-11-01T04:36:59.891Z,100982.09
2018-11-01T04:39:28.368Z,100990.86
2018-11-01T04:41:56.714Z,100998.55
2018-11-01T04:44:25.039Z,100995.94
2018-11-01T04:46:53.476Z,100993.55
2018-11-01T04:49:21.890Z,100994.56
2018-11-01T04:51:51.418Z,100987.16
2018-11-01T04:54:19.941Z,100981.35
2018-11-01T04:56:48.313Z,100982.33
2018-11-01T04:59:16.639Z,100978.52
2018-11-01T05:01:45.172Z,100984.66
2018-11-01T05:04:13.767Z,100973.77
2018-11-01T05:06:42.119Z,100964.70
2018-11-01T05:09:10.434Z,100970.43
2018-11-01T05:11:38.922Z,100967.67
2018-11-01T05:14:07.301Z,100966.25
2018-11-01T05:16:35.613Z,100969.52
2018-11-01T05:19:04.289Z,100969.27
2018-11-01T05:21:32.691Z,100971.30
2018-11-01T05:24:01.973Z,100963.90
2018-11-01T05:26:31.646Z,100968.95
2018-11-01T05:28:59.990Z,100961.91
2018-11-01T05:31:28.500Z,100958.33
2018-11-01T05:33:57.300Z,100972.66
2018-11-01T05:36:25.698Z,100968.98
2018-11-01T05:38:54.039Z,100966.63
2018-11-01T05:41:22.707Z,100966.70
2018-11-01T05:43:51.043Z,100966.73
2018-11-01T05:46:19.361Z,100959.48
2018-11-01T05:48:47.912Z,100958.51
2018-11-01T05:51:16.302Z,100955.75
2018-11-01T05:53:45.478Z,100955.36
2018-11-01T05:56:13.913Z,100958.08
2018-11-01T05:58:42.340Z,100963.12
2018-11-01T06:01:12.883Z,100967.43
2018-11-01T06:03:42.152Z,100970.00
2018-11-01T06:06:10.698Z,100977.95
2018-11-01T06:08:42.291Z,100983.31
2018-11-01T06:11:10.681Z,100983.82
2018-11-01T06:13:39.261Z,100983.68
2018-11-01T06:16:07.619Z,100983.17
2018-11-01T06:18:36.212Z,100983.09
2018-11-01T06:21:04.874Z,100979.91
2018-11-01T06:23:33.182Z,100981.58
2018-11-01T06:26:01.479Z,100983.14
2018-11-01T06:28:29.938Z,100987.45
2018-11-01T06:30:58.239Z,100994.09
2018-11-01T06:33:26.533Z,101001.16
2018-11-01T06:35:57.787Z,101005.59
2018-11-01T06:38:26.100Z,101001.09
2018-11-01T06:40:54.439Z,101005.45
2018-11-01T06:43:22.818Z,100999.31
2018-11-01T06:45:51.150Z,101004.28
2018-11-01T06:48:19.489Z,101002.83
2018-11-01T06:50:47.876Z,101010.41
2018-11-01T06:53:16.279Z,101001.34
2018-11-01T06:55:44.768Z,100989.01
2018-11-01T06:58:13.250Z,101005.63
2018-11-01T07:00:41.607Z,101007.44
2018-11-01T07:03:10.144Z,101003.98
2018-11-01T07:05:38.634Z,101006.70
2018-11-01T07:08:06.907Z,101000.59
2018-11-01T07:10:35.346Z,100998.11
2018-11-01T07:13:03.935Z,101008.24
2018-11-01T07:15:32.258Z,101012.11
2018-11-01T07:18:00.716Z,101021.51
2018-11-01T07:20:29.178Z,101027.30
2018-11-01T07:22:57.575Z,101032.14
2018-11-01T07:25:26.178Z,101030.91
2018-11-01T07:27:54.477Z,101026.98
2018-11-01T07:30:22.823Z,101026.79
2018-11-01T07:32:51.385Z,101017.90
2018-11-01T07:35:19.694Z,101016.56
2018-11-01T07:37:48.056Z,101027.02
2018-11-01T07:40:17.476Z,100822.02
2018-11-01T07:42:46.908Z,101029.77
2018-11-01T07:45:15.545Z,101039.08
2018-11-01T07:47:44.471Z,101047.29
2018-11-01T07:50:13.550Z,101050.30
2018-11-01T07:52:42.051Z,101052.47
2018-11-01T07:55:13.183Z,101051.48
2018-11-01T07:57:41.769Z,101053.48
2018-11-01T08:00:13.993Z,101047.55
2018-11-01T08:02:43.309Z,101046.16
2018-11-01T08:05:12.305Z,101047.61
2018-11-01T08:07:41.203Z,101045.84
2018-11-01T08:10:12.858Z,101051.07
2018-11-01T08:12:42.168Z,101048.11
2018-11-01T08:15:12.781Z,101042.87
2018-11-01T08:17:41.546Z,101028.23
2018-11-01T08:20:12.198Z,101027.13
2018-11-01T08:22:40.794Z,101023.94
2018-11-01T08:25:10.102Z,101028.31
2018-11-01T08:27:39.665Z,101025.20
2018-11-01T08:30:10.643Z,101019.05
2018-11-01T08:32:38.975Z,101017.78
2018-11-01T08:35:07.996Z,101019.28
2018-11-01T08:37:36.649Z,101008.67
2018-11-01T08:40:07.381Z,101013.00
2018-11-01T08:42:35.877Z,101006.39
2018-11-01T08:45:06.260Z,101012.51
2018-11-01T08:47:34.790Z,101006.67
2018-11-01T08:50:03.370Z,101001.32
2018-11-01T08:52:31.911Z,100995.34
2018-11-01T08:55:00.306Z,100994.71
2018-11-01T08:57:28.773Z,100983.00
2018-11-01T08:59:57.304Z,100972.00
2018-11-01T09:02:25.807Z,100968.06
2018-11-01T09:04:54.317Z,100972.56
2018-11-01T09:07:23.885Z,100974.98
2018-11-01T09:09:52.401Z,100970.00
2018-11-01T09:12:20.874Z,100964.45
2018-11-01T09:14:50.239Z,100967.45
2018-11-01T09:17:19.400Z,100967.08
2018-11-01T09:19:48.402Z,100961.37
2018-11-01T09:22:16.827Z,100962.66
2018-11-01T09:24:45.556Z,100964.88
2018-11-01T09:27:14.687Z,100973.81
2018-11-01T09:29:43.156Z,100976.39
2018-11-01T09:32:11.731Z,100975.34
2018-11-01T09:34:41.166Z,100973.55
2018-11-01T09:37:09.846Z,100979.72
2018-11-01T09:39:38.433Z,100969.67
2018-11-01T09:42:07.486Z,100966.27
2018-11-01T09:44:35.962Z,100966.98
2018-11-01T09:47:05.481Z,100953.27
2018-11-01T09:49:33.985Z,100946.94
2018-11-01T09:52:02.420Z,100946.68
2018-11-01T09:54:30.940Z,100938.22
2018-11-01T09:57:00.187Z,100938.13
2018-11-01T09:59:28.609Z,100936.55
2018-11-01T10:01:57.704Z,100939.59
2018-11-01T10:04:26.231Z,100945.59
2018-11-01T10:06:54.858Z,100965.02
2018-11-01T10:09:23.252Z,100962.17
2018-11-01T10:11:51.744Z,100969.13
2018-11-01T10:14:20.296Z,100985.38
2018-11-01T10:16:48.957Z,100986.15
2018-11-01T10:19:18.178Z,100991.34
2018-11-01T10:21:46.640Z,100997.20
2018-11-01T10:24:14.879Z,100995.41
2018-11-01T10:26:43.789Z,100993.16
2018-11-01T10:29:12.203Z,100978.32
2018-11-01T10:31:40.682Z,100969.97
2018-11-01T10:34:09.191Z,100975.15
2018-11-01T10:36:41.637Z,100970.92
2018-11-01T10:39:13.079Z,100975.20
2018-11-01T10:41:42.244Z,100968.59
2018-11-01T10:44:10.911Z,100973.69
2018-11-01T10:46:42.618Z,100972.75
2018-11-01T10:49:11.796Z,100960.17
2018-11-01T10:51:48.165Z,100953.98
2018-11-01T10:54:17.367Z,100948.59
2018-11-01T10:56:48.198Z,100953.05
2018-11-01T10:59:21.183Z,100940.80
2018-11-01T11:01:56.997Z,100925.77
2018-11-01T11:04:26.891Z,100922.52
2018-11-01T11:06:56.196Z,100923.02
2018-11-01T11:09:26.752Z,100907.22
2018-11-01T11:11:57.172Z,100904.86
2018-11-01T11:14:26.880Z,100904.61
2018-11-01T11:16:56.224Z,100915.60
2018-11-01T11:19:27.649Z,100902.00
2018-11-01T11:21:56.212Z,100904.14
2018-11-01T11:24:27.145Z,100898.01
2018-11-01T11:26:58.133Z,100893.47
2018-11-01T11:29:30.484Z,100891.18
2018-11-01T11:32:02.260Z,100882.59
2018-11-01T11:34:32.232Z,100890.86
2018-11-01T11:37:01.645Z,100888.02
2018-11-01T11:39:32.444Z,100868.22
2018-11-01T11:44:37.863Z,100871.56
2018-11-01T11:47:08.979Z,100866.36
2018-11-01T11:49:40.690Z,100871.23
2018-11-01T11:52:10.669Z,100874.34
2018-11-01T11:54:40.154Z,100869.19
2018-11-01T11:57:09.113Z,100875.16
2018-11-01T11:59:38.385Z,100876.25
2018-11-01T12:02:07.975Z,100874.51
2018-11-01T12:04:37.585Z,100867.20
2018-11-01T12:07:09.201Z,100862.11
2018-11-01T12:09:38.557Z,100869.23
2018-11-01T12:12:08.391Z,100859.73
2018-11-01T12:14:37.565Z,100869.91
2018-11-01T12:17:08.003Z,100868.03
2018-11-01T12:19:37.475Z,100866.12
2018-11-01T12:22:07.504Z,100864.73
2018-11-01T12:24:36.151Z,100894.49
2018-11-01T12:27:04.862Z,100887.72
2018-11-01T12:29:36.337Z,100880.15
2018-11-01T12:32:05.283Z,100895.95
2018-11-01T12:34:35.274Z,100899.23
2018-11-01T12:37:04.975Z,100903.63
2018-11-01T12:39:34.432Z,100904.04
2018-11-01T12:42:07.614Z,100898.56
2018-11-01T12:44:36.494Z,100899.28
2018-11-01T12:47:04.957Z,100894.66
2018-11-01T12:49:33.604Z,100896.70
2018-11-01T12:52:02.768Z,100891.86
2018-11-01T12:54:31.106Z,100895.33
2018-11-01T12:57:00.287Z,100887.64
2018-11-01T12:59:28.749Z,100875.00
2018-11-01T13:01:57.186Z,100878.13
2018-11-01T13:04:25.874Z,100875.02
2018-11-01T13:06:54.305Z,100884.13
2018-11-01T13:09:25.225Z,100881.71
2018-11-01T13:11:55.222Z,100880.77
2018-11-01T13:14:26.412Z,100882.44
2018-11-01T13:16:58.503Z,100877.27
2018-11-01T13:19:28.187Z,100873.73
2018-11-01T13:21:56.783Z,100877.66
2018-11-01T13:24:25.147Z,100883.67
2018-11-01T13:26:53.884Z,100880.31
2018-11-01T13:29:22.536Z,100882.21
2018-11-01T13:31:51.115Z,100881.41
2018-11-01T13:34:19.502Z,100880.87
2018-11-01T13:36:47.999Z,100891.52
2018-11-01T13:39:16.685Z,100884.20
2018-11-01T13:41:45.171Z,100886.47
2018-11-01T13:44:13.450Z,100888.11
2018-11-01T13:46:42.443Z,100884.05
2018-11-01T13:49:10.816Z,100894.98
2018-11-01T13:51:39.365Z,100890.02
2018-11-01T13:54:08.423Z,100892.34
2018-11-01T13:56:36.994Z,100890.83
2018-11-01T13:59:06.279Z,100888.52
2018-11-01T14:01:34.873Z,100889.23
2018-11-01T14:04:03.496Z,100889.27
2018-11-01T14:06:32.356Z,100887.47
2018-11-01T14:09:00.888Z,100887.09
2018-11-01T14:11:29.382Z,100893.67
2018-11-01T14:13:59.226Z,100896.44
2018-11-01T14:16:27.584Z,100898.16
2018-11-01T14:18:56.144Z,100904.28
2018-11-01T14:21:24.813Z,100911.80
2018-11-01T14:23:53.315Z,100903.67
2018-11-01T14:26:21.742Z,100907.87
2018-11-01T14:28:50.270Z,100901.05
2018-11-01T14:31:18.759Z,100904.13
2018-11-01T14:33:47.259Z,100903.19
2018-11-01T14:36:15.949Z,100908.65
2018-11-01T14:38:44.872Z,100899.55
2018-11-01T14:41:14.741Z,100900.27
2018-11-01T14:43:43.348Z,100901.96
2018-11-01T14:46:12.505Z,100894.66
2018-11-01T14:48:42.640Z,100895.77
2018-11-01T14:51:11.924Z,100897.11
2018-11-01T14:53:40.460Z,100900.39
2018-11-01T14:56:11.976Z,100919.27
2018-11-01T14:58:40.115Z,100914.31
2018-11-01T15:01:07.252Z,100913.83
2018-11-01T15:03:35.902Z,100919.81
2018-11-01T15:06:05.424Z,100922.77
2018-11-01T15:08:33.957Z,100932.04
2018-11-01T15:11:02.444Z,100916.08
2018-11-01T15:13:31.463Z,100921.22
2018-11-01T15:15:59.963Z,100914.98
2018-11-01T15:18:28.282Z,100913.13
2018-11-01T15:20:56.675Z,100897.53
2018-11-01T15:23:25.426Z,100897.64
2018-11-01T15:25:54.465Z,100891.17
2018-11-01T15:28:22.851Z,100895.06
2018-11-01T15:30:51.331Z,100894.87
2018-11-01T15:33:19.797Z,100895.62
2018-11-01T15:35:48.263Z,100899.34
2018-11-01T15:38:16.818Z,100896.78
2018-11-01T15:40:45.244Z,100898.70
2018-11-01T15:43:13.841Z,100896.91
2018-11-01T15:45:42.152Z,100906.28
2018-11-01T15:48:17.670Z,100907.30
2018-11-01T15:50:45.920Z,100910.22
2018-11-01T15:53:15.331Z,100917.80
2018-11-01T15:55:43.693Z,100919.20
2018-11-01T15:58:12.065Z,100923.86
2018-11-01T16:00:40.501Z,100922.88
2018-11-01T16:03:09.713Z,100919.61
2018-11-01T16:05:38.152Z,100913.49
2018-11-01T16:08:06.708Z,100911.55
2018-11-01T16:10:35.413Z,100906.88
2018-11-01T16:13:04.144Z,100907.41
2018-11-01T16:15:32.790Z,100907.19
2018-11-01T16:18:01.976Z,100907.19
2018-11-01T16:20:30.386Z,100903.89
2018-11-01T16:22:59.200Z,100892.95
2018-11-01T16:25:27.647Z,100890.08
2018-11-01T16:27:56.048Z,100890.75
2018-11-01T16:30:24.661Z,100896.44
2018-11-01T16:32:53.380Z,100894.86
2018-11-01T16:35:21.783Z,100897.01
2018-11-01T16:37:54.502Z,100901.84
2018-11-01T16:40:23.805Z,100904.28
2018-11-01T16:42:53.341Z,100908.52
2018-11-01T16:45:21.889Z,100910.30
2018-11-01T16:47:50.018Z,100910.72
2018-11-01T16:50:18.461Z,100901.33
2018-11-01T16:52:47.522Z,100907.02
2018-11-01T16:55:15.952Z,100903.16
2018-11-01T16:57:44.395Z,100908.40
2018-11-01T17:00:13.454Z,100909.09
2018-11-01T17:02:44.163Z,100907.98
2018-11-01T17:05:12.543Z,100908.22
2018-11-01T17:07:42.349Z,100906.30
2018-11-01T17:10:12.459Z,100907.52
2018-11-01T17:12:41.195Z,100906.30
2018-11-01T17:15:12.116Z,100905.83
2018-11-01T17:17:40.791Z,100910.72
2018-11-01T17:20:09.169Z,100911.03
2018-11-01T17:22:37.675Z,100909.81
2018-11-01T17:25:07.517Z,100913.66
2018-11-01T17:27:35.918Z,100925.47
2018-11-01T17:30:07.278Z,100924.76
2018-11-01T17:32:41.806Z,100924.19
2018-11-01T17:35:10.384Z,100927.98
2018-11-01T17:37:38.690Z,100928.97
2018-11-01T17:40:08.052Z,100929.27
2018-11-01T17:42:36.735Z,100930.39
2018-11-01T17:45:06.323Z,100926.55
2018-11-01T17:47:34.690Z,100937.05
2018-11-01T17:50:03.654Z,100936.83
2018-11-01T17:52:32.111Z,100936.23
2018-11-01T17:55:00.656Z,100936.20
2018-11-01T17:57:29.112Z,100937.64
2018-11-01T17:59:57.533Z,100927.36
2018-11-01T18:02:26.029Z,100926.88
2018-11-01T18:04:54.373Z,100928.58
2018-11-01T18:07:23.018Z,100926.88
2018-11-01T18:09:51.484Z,100926.13
2018-11-01T18:12:19.906Z,100935.11
2018-11-01T18:14:48.341Z,100930.12
2018-11-01T18:17:16.711Z,100932.54
2018-11-01T18:19:45.115Z,100931.09
2018-11-01T18:22:13.463Z,100926.70
2018-11-01T18:24:42.038Z,100922.41
2018-11-01T18:27:10.587Z,100927.59
2018-11-01T18:29:39.420Z,100930.69
2018-11-01T18:32:08.297Z,100923.12
2018-11-01T18:34:36.676Z,100933.53
2018-11-01T18:37:06.165Z,100935.44
2018-11-01T18:39:35.496Z,100925.36
2018-11-01T18:42:03.961Z,100937.51
2018-11-01T18:44:34.902Z,100932.63
2018-11-01T18:47:04.817Z,100941.81
2018-11-01T18:49:34.113Z,100941.81
2018-11-01T18:52:02.673Z,100936.62
2018-11-01T18:54:31.997Z,100938.05
2018-11-01T18:57:00.277Z,100940.05
2018-11-01T18:59:28.693Z,100949.95
2018-11-01T19:01:57.064Z,100951.41
2018-11-01T19:04:25.512Z,100944.02
2018-11-01T19:06:55.032Z,100944.73
2018-11-01T19:09:23.455Z,100947.95
2018-11-01T19:11:54.754Z,100944.44
2018-11-01T19:14:23.590Z,100943.19
2018-11-01T19:16:51.989Z,100939.05
2018-11-01T19:19:20.623Z,100944.94
2018-11-01T19:21:49.159Z,100949.77
2018-11-01T19:24:17.552Z,100945.44
2018-11-01T19:26:46.114Z,100952.20
2018-11-01T19:29:14.627Z,100948.80
2018-11-01T19:31:45.596Z,100956.86
2018-11-01T19:34:14.096Z,100961.16
2018-11-01T19:36:43.404Z,100956.95
2018-11-01T19:39:13.055Z,100955.94
2018-11-01T19:41:41.524Z,100962.70
2018-11-01T19:44:11.154Z,100963.22
2018-11-01T19:46:39.711Z,100965.75
2018-11-01T19:49:08.134Z,100762.04
2018-11-01T19:51:36.901Z,100970.19
2018-11-01T19:54:05.810Z,100974.15
2018-11-01T19:56:34.440Z,100970.51
2018-11-01T19:59:03.040Z,100972.92
2018-11-01T20:01:31.491Z,100975.31
2018-11-01T20:04:27.615Z,100948.56
2018-11-01T20:07:05.939Z,100981.37
2018-11-01T20:09:36.155Z,100979.28
2018-11-01T20:12:06.374Z,100982.27
2018-11-01T20:15:04.210Z,100985.70
2018-11-01T20:17:32.940Z,100987.77
2018-11-01T20:20:02.001Z,100987.28
2018-11-01T20:22:30.374Z,100981.52
2018-11-01T20:24:59.722Z,100990.63
2018-11-01T20:27:28.246Z,100993.69
2018-11-01T20:29:56.788Z,100989.53
2018-11-01T20:32:25.470Z,100998.95
2018-11-01T20:34:55.633Z,100995.11
2018-11-01T20:39:56.825Z,100992.67
2018-11-01T20:42:27.788Z,100999.26
2018-11-01T20:44:56.540Z,101001.83
2018-11-01T20:47:25.123Z,101000.33
2018-11-01T20:49:53.775Z,100998.91
2018-11-01T20:52:22.964Z,101004.41
2018-11-01T20:54:51.438Z,100999.42
2018-11-01T20:57:20.188Z,101007.43
2018-11-01T20:59:48.552Z,101008.83
2018-11-01T21:02:18.674Z,101002.57
2018-11-01T21:04:48.008Z,101008.41
2018-11-01T21:07:16.455Z,101012.23
2018-11-01T21:09:45.416Z,101023.37
2018-11-01T21:12:14.165Z,101019.33
2018-11-01T21:14:44.376Z,101022.32
2018-11-01T21:17:13.036Z,101027.99
2018-11-01T21:19:41.837Z,101023.37
2018-11-01T21:22:13.138Z,101028.88
2018-11-01T21:24:43.074Z,101027.37
2018-11-01T21:27:11.543Z,101037.30
2018-11-01T21:29:39.940Z,101035.52
2018-11-01T21:32:09.297Z,101042.33
2018-11-01T21:34:38.326Z,101036.38
2018-11-01T21:37:07.730Z,101038.88
2018-11-01T21:39:49.907Z,101036.95
2018-11-01T21:42:18.402Z,101037.97
2018-11-01T21:44:54.019Z,101036.37
2018-11-01T21:47:24.198Z,101039.16
2018-11-01T21:49:52.851Z,101045.84
2018-11-01T21:52:21.298Z,101053.49
2018-11-01T21:54:50.410Z,101057.59
2018-11-01T21:57:20.869Z,101058.82
2018-11-01T21:59:50.561Z,101057.84
2018-11-01T22:02:20.060Z,101061.73
2018-11-01T22:04:48.860Z,101061.55
2018-11-01T22:07:18.230Z,101057.95
2018-11-01T22:09:47.727Z,101052.48
2018-11-01T22:12:16.943Z,101054.14
2018-11-01T22:14:47.735Z,101054.23
2018-11-01T22:17:18.386Z,101056.12
2018-11-01T22:19:50.862Z,101052.66
2018-11-01T22:22:19.651Z,101055.80
2018-11-01T22:24:49.297Z,101057.59
2018-11-01T22:27:17.811Z,101056.98
2018-11-01T22:29:48.270Z,101056.68
2018-11-01T22:32:20.160Z,101056.77
2018-11-01T22:34:50.480Z,101055.28
2018-11-01T22:37:24.547Z,101060.41
2018-11-01T22:39:54.768Z,101061.44
2018-11-01T22:42:25.758Z,101070.63
2018-11-01T22:44:54.212Z,101068.61
2018-11-01T22:47:24.166Z,101071.31
2018-11-01T22:49:52.780Z,101070.01
2018-11-01T22:52:24.715Z,101072.77
2018-11-01T22:54:55.235Z,101070.31
2018-11-01T22:57:23.940Z,101066.91
2018-11-01T22:59:53.598Z,101068.83
2018-11-01T23:02:23.699Z,101076.48
2018-11-01T23:04:53.534Z,101079.94
2018-11-01T23:07:23.094Z,101086.81
2018-11-01T23:09:54.526Z,101081.67
2018-11-01T23:12:25.862Z,101093.07
2018-11-01T23:14:57.339Z,101092.69
2018-11-01T23:17:27.033Z,101100.20
2018-11-01T23:19:56.278Z,101096.08
2018-11-01T23:22:27.250Z,101102.17
2018-11-01T23:24:56.516Z,101113.80
2018-11-01T23:27:25.203Z,101107.54
2018-11-01T23:29:55.711Z,101107.81
2018-11-01T23:32:24.425Z,101103.09
2018-11-01T23:34:55.010Z,101109.94
2018-11-01T23:37:31.201Z,101111.56
2018-11-01T23:40:05.173Z,101118.13
2018-11-01T23:42:39.370Z,101108.12
2018-11-01T23:45:15.754Z,101105.64
2018-11-01T23:47:49.914Z,101112.55
2018-11-01T23:51:26.242Z,101120.05
2018-11-01T23:53:55.321Z,101130.61
2018-11-01T23:56:25.182Z,101130.85
2018-11-01T23:58:55.497Z,101134.31
